sensor_id;sensor_type;location;lat;lon;timestamp;P1;durP1;ratioP1;P2;durP2;ratioP2
789;SDS011;378;48.844;9.156;2023-06-10T00:01:17;8.15;;;5.28;;
789;SDS011;378;48.844;9.156;2023-06-10T00:03:44;7.25;;;5.30;;
789;SDS011;378;48.844;9.156;2023-06-10T00:06:10;9.05;;;5.63;;
789;SDS011;378;48.844;9.156;2023-06-10T00:08:39;8.45;;;5.53;;
789;SDS011;378;48.844;9.156;2023-06-10T00:11:05;7.03;;;5.15;;
789;SDS011;378;48.844;9.156;2023-06-10T00:13:32;10.10;;;5.60;;
789;SDS011;378;48.844;9.156;2023-06-10T00:15:59;8.38;;;5.55;;
789;SDS011;378;48.844;9.156;2023-06-10T00:18:26;8.73;;;5.35;;
789;SDS011;378;48.844;9.156;2023-06-10T00:20:54;10.68;;;5.55;;
789;SDS011;378;48.844;9.156;2023-06-10T00:23:22;7.38;;;5.63;;
789;SDS011;378;48.844;9.156;2023-06-10T00:25:51;8.65;;;5.40;;
789;SDS011;378;48.844;9.156;2023-06-10T00:28:18;7.72;;;5.88;;
789;SDS011;378;48.844;9.156;2023-06-10T00:30:45;10.32;;;5.80;;
789;SDS011;378;48.844;9.156;2023-06-10T00:33:12;7.70;;;5.78;;
789;SDS011;378;48.844;9.156;2023-06-10T00:35:39;8.25;;;5.85;;
789;SDS011;378;48.844;9.156;2023-06-10T00:38:06;8.73;;;5.97;;
789;SDS011;378;48.844;9.156;2023-06-10T00:40:33;8.52;;;6.05;;
789;SDS011;378;48.844;9.156;2023-06-10T00:43:06;7.35;;;5.68;;
789;SDS011;378;48.844;9.156;2023-06-10T00:45:33;6.88;;;5.10;;
789;SDS011;378;48.844;9.156;2023-06-10T00:48:00;6.95;;;5.53;;
789;SDS011;378;48.844;9.156;2023-06-10T00:50:27;11.05;;;6.03;;
789;SDS011;378;48.844;9.156;2023-06-10T00:52:56;8.77;;;5.78;;
789;SDS011;378;48.844;9.156;2023-06-10T00:55:22;6.78;;;5.50;;
789;SDS011;378;48.844;9.156;2023-06-10T00:57:49;11.48;;;6.50;;
789;SDS011;378;48.844;9.156;2023-06-10T01:00:19;7.65;;;5.82;;
789;SDS011;378;48.844;9.156;2023-06-10T01:02:45;7.32;;;5.28;;
789;SDS011;378;48.844;9.156;2023-06-10T01:05:12;8.25;;;5.78;;
789;SDS011;378;48.844;9.156;2023-06-10T01:07:40;7.57;;;5.97;;
789;SDS011;378;48.844;9.156;2023-06-10T01:10:15;6.93;;;5.40;;
789;SDS011;378;48.844;9.156;2023-06-10T01:12:49;10.02;;;6.15;;
789;SDS011;378;48.844;9.156;2023-06-10T01:15:23;7.28;;;5.68;;
789;SDS011;378;48.844;9.156;2023-06-10T01:17:54;9.57;;;5.72;;
789;SDS011;378;48.844;9.156;2023-06-10T01:20:22;7.93;;;5.35;;
789;SDS011;378;48.844;9.156;2023-06-10T01:22:53;7.60;;;5.60;;
789;SDS011;378;48.844;9.156;2023-06-10T01:25:20;9.60;;;5.50;;
789;SDS011;378;48.844;9.156;2023-06-10T01:27:52;8.73;;;5.95;;
789;SDS011;378;48.844;9.156;2023-06-10T01:30:22;8.77;;;5.50;;
789;SDS011;378;48.844;9.156;2023-06-10T01:32:54;8.13;;;6.05;;
789;SDS011;378;48.844;9.156;2023-06-10T01:35:22;10.10;;;6.03;;
789;SDS011;378;48.844;9.156;2023-06-10T01:37:53;8.23;;;5.50;;
789;SDS011;378;48.844;9.156;2023-06-10T01:40:23;7.70;;;5.82;;
789;SDS011;378;48.844;9.156;2023-06-10T01:42:51;7.45;;;5.13;;
789;SDS011;378;48.844;9.156;2023-06-10T01:45:18;8.15;;;6.20;;
789;SDS011;378;48.844;9.156;2023-06-10T01:47:45;8.35;;;6.13;;
789;SDS011;378;48.844;9.156;2023-06-10T01:50:12;8.27;;;5.60;;
789;SDS011;378;48.844;9.156;2023-06-10T01:52:39;7.60;;;5.45;;
789;SDS011;378;48.844;9.156;2023-06-10T01:55:07;8.95;;;5.88;;
789;SDS011;378;48.844;9.156;2023-06-10T01:57:34;7.78;;;5.72;;
789;SDS011;378;48.844;9.156;2023-06-10T02:00:01;8.15;;;5.55;;
789;SDS011;378;48.844;9.156;2023-06-10T02:02:29;7.35;;;5.60;;
789;SDS011;378;48.844;9.156;2023-06-10T02:04:56;9.63;;;5.93;;
789;SDS011;378;48.844;9.156;2023-06-10T02:07:22;8.38;;;5.53;;
789;SDS011;378;48.844;9.156;2023-06-10T02:09:49;9.55;;;5.70;;
789;SDS011;378;48.844;9.156;2023-06-10T02:12:17;6.68;;;5.32;;
789;SDS011;378;48.844;9.156;2023-06-10T02:14:44;9.05;;;5.55;;
789;SDS011;378;48.844;9.156;2023-06-10T02:17:11;6.10;;;4.70;;
789;SDS011;378;48.844;9.156;2023-06-10T02:19:40;6.35;;;5.13;;
789;SDS011;378;48.844;9.156;2023-06-10T02:22:08;7.45;;;5.00;;
789;SDS011;378;48.844;9.156;2023-06-10T02:24:35;8.82;;;5.70;;
789;SDS011;378;48.844;9.156;2023-06-10T02:27:03;7.53;;;5.45;;
789;SDS011;378;48.844;9.156;2023-06-10T02:29:33;8.00;;;5.18;;
789;SDS011;378;48.844;9.156;2023-06-10T02:32:01;6.80;;;4.82;;
789;SDS011;378;48.844;9.156;2023-06-10T02:34:29;7.72;;;5.10;;
789;SDS011;378;48.844;9.156;2023-06-10T02:36:56;6.57;;;5.13;;
789;SDS011;378;48.844;9.156;2023-06-10T02:39:23;9.85;;;4.93;;
789;SDS011;378;48.844;9.156;2023-06-10T02:41:49;9.35;;;4.95;;
789;SDS011;378;48.844;9.156;2023-06-10T02:44:17;5.45;;;4.50;;
789;SDS011;378;48.844;9.156;2023-06-10T02:46:46;6.72;;;5.32;;
789;SDS011;378;48.844;9.156;2023-06-10T02:49:13;7.03;;;4.90;;
789;SDS011;378;48.844;9.156;2023-06-10T02:51:40;8.73;;;4.82;;
789;SDS011;378;48.844;9.156;2023-06-10T02:54:07;6.00;;;4.80;;
789;SDS011;378;48.844;9.156;2023-06-10T02:56:34;6.43;;;4.40;;
789;SDS011;378;48.844;9.156;2023-06-10T02:59:01;5.35;;;4.13;;
789;SDS011;378;48.844;9.156;2023-06-10T03:01:28;6.75;;;4.82;;
789;SDS011;378;48.844;9.156;2023-06-10T03:03:58;6.00;;;4.45;;
789;SDS011;378;48.844;9.156;2023-06-10T03:06:24;5.63;;;4.35;;
789;SDS011;378;48.844;9.156;2023-06-10T03:08:51;6.93;;;5.07;;
789;SDS011;378;48.844;9.156;2023-06-10T03:11:18;7.22;;;4.60;;
789;SDS011;378;48.844;9.156;2023-06-10T03:13:45;7.53;;;4.55;;
789;SDS011;378;48.844;9.156;2023-06-10T03:16:12;6.65;;;4.65;;
789;SDS011;378;48.844;9.156;2023-06-10T03:18:39;9.05;;;4.43;;
789;SDS011;378;48.844;9.156;2023-06-10T03:21:07;9.25;;;4.90;;
789;SDS011;378;48.844;9.156;2023-06-10T03:23:35;5.60;;;3.92;;
789;SDS011;378;48.844;9.156;2023-06-10T03:26:02;6.57;;;4.50;;
789;SDS011;378;48.844;9.156;2023-06-10T03:28:29;9.65;;;4.53;;
789;SDS011;378;48.844;9.156;2023-06-10T03:30:56;4.47;;;3.97;;
789;SDS011;378;48.844;9.156;2023-06-10T03:33:23;8.18;;;4.85;;
789;SDS011;378;48.844;9.156;2023-06-10T03:35:51;6.85;;;4.35;;
789;SDS011;378;48.844;9.156;2023-06-10T03:38:19;6.60;;;5.03;;
789;SDS011;378;48.844;9.156;2023-06-10T03:40:46;6.45;;;4.70;;
789;SDS011;378;48.844;9.156;2023-06-10T03:43:13;9.55;;;4.72;;
789;SDS011;378;48.844;9.156;2023-06-10T03:45:40;7.75;;;5.10;;
789;SDS011;378;48.844;9.156;2023-06-10T03:48:07;6.38;;;4.82;;
789;SDS011;378;48.844;9.156;2023-06-10T03:50:34;6.07;;;4.57;;
789;SDS011;378;48.844;9.156;2023-06-10T03:53:01;7.15;;;4.68;;
789;SDS011;378;48.844;9.156;2023-06-10T03:55:30;7.50;;;5.05;;
789;SDS011;378;48.844;9.156;2023-06-10T03:57:57;8.45;;;5.20;;
789;SDS011;378;48.844;9.156;2023-06-10T04:00:24;6.55;;;5.07;;
789;SDS011;378;48.844;9.156;2023-06-10T04:02:51;7.72;;;5.15;;
789;SDS011;378;48.844;9.156;2023-06-10T04:05:18;8.52;;;5.40;;
789;SDS011;378;48.844;9.156;2023-06-10T04:07:47;7.82;;;4.82;;
789;SDS011;378;48.844;9.156;2023-06-10T04:10:14;5.82;;;4.70;;
789;SDS011;378;48.844;9.156;2023-06-10T04:12:43;6.50;;;4.70;;
789;SDS011;378;48.844;9.156;2023-06-10T04:15:10;7.25;;;4.68;;
789;SDS011;378;48.844;9.156;2023-06-10T04:17:38;7.15;;;4.90;;
789;SDS011;378;48.844;9.156;2023-06-10T04:20:05;8.40;;;5.00;;
789;SDS011;378;48.844;9.156;2023-06-10T04:22:34;8.05;;;5.15;;
789;SDS011;378;48.844;9.156;2023-06-10T04:25:01;9.80;;;5.32;;
789;SDS011;378;48.844;9.156;2023-06-10T04:27:28;7.75;;;5.30;;
789;SDS011;378;48.844;9.156;2023-06-10T04:29:57;6.97;;;5.10;;
789;SDS011;378;48.844;9.156;2023-06-10T04:32:23;7.53;;;5.10;;
789;SDS011;378;48.844;9.156;2023-06-10T04:34:51;8.73;;;5.60;;
789;SDS011;378;48.844;9.156;2023-06-10T04:37:18;8.48;;;5.30;;
789;SDS011;378;48.844;9.156;2023-06-10T04:39:45;8.98;;;5.15;;
789;SDS011;378;48.844;9.156;2023-06-10T04:42:12;8.00;;;5.15;;
789;SDS011;378;48.844;9.156;2023-06-10T04:44:39;8.30;;;5.32;;
789;SDS011;378;48.844;9.156;2023-06-10T04:47:08;9.05;;;5.65;;
789;SDS011;378;48.844;9.156;2023-06-10T04:49:34;7.82;;;5.60;;
789;SDS011;378;48.844;9.156;2023-06-10T04:52:01;6.40;;;5.00;;
789;SDS011;378;48.844;9.156;2023-06-10T04:54:29;8.88;;;5.25;;
789;SDS011;378;48.844;9.156;2023-06-10T04:56:57;6.43;;;4.85;;
789;SDS011;378;48.844;9.156;2023-06-10T04:59:25;7.28;;;4.90;;
789;SDS011;378;48.844;9.156;2023-06-10T05:01:52;8.00;;;4.82;;
789;SDS011;378;48.844;9.156;2023-06-10T05:04:21;6.68;;;4.57;;
789;SDS011;378;48.844;9.156;2023-06-10T05:06:48;6.85;;;4.78;;
789;SDS011;378;48.844;9.156;2023-06-10T05:09:14;6.57;;;4.40;;
789;SDS011;378;48.844;9.156;2023-06-10T05:11:41;6.45;;;4.63;;
789;SDS011;378;48.844;9.156;2023-06-10T05:14:08;8.60;;;5.03;;
789;SDS011;378;48.844;9.156;2023-06-10T05:16:35;5.72;;;4.20;;
789;SDS011;378;48.844;9.156;2023-06-10T05:19:02;5.20;;;4.22;;
789;SDS011;378;48.844;9.156;2023-06-10T05:21:30;6.63;;;4.38;;
789;SDS011;378;48.844;9.156;2023-06-10T05:23:57;5.82;;;4.22;;
789;SDS011;378;48.844;9.156;2023-06-10T05:26:25;5.20;;;3.72;;
789;SDS011;378;48.844;9.156;2023-06-10T05:28:53;4.53;;;3.75;;
789;SDS011;378;48.844;9.156;2023-06-10T05:31:19;7.45;;;4.90;;
789;SDS011;378;48.844;9.156;2023-06-10T05:33:46;6.20;;;4.53;;
789;SDS011;378;48.844;9.156;2023-06-10T05:36:13;6.80;;;4.28;;
789;SDS011;378;48.844;9.156;2023-06-10T05:38:41;4.85;;;4.00;;
789;SDS011;378;48.844;9.156;2023-06-10T05:41:08;7.47;;;3.85;;
789;SDS011;378;48.844;9.156;2023-06-10T05:43:35;6.22;;;4.40;;
789;SDS011;378;48.844;9.156;2023-06-10T05:46:02;8.15;;;4.07;;
789;SDS011;378;48.844;9.156;2023-06-10T05:48:29;6.20;;;4.38;;
789;SDS011;378;48.844;9.156;2023-06-10T05:50:55;5.75;;;4.43;;
789;SDS011;378;48.844;9.156;2023-06-10T05:53:22;9.48;;;4.03;;
789;SDS011;378;48.844;9.156;2023-06-10T05:55:50;4.80;;;3.88;;
789;SDS011;378;48.844;9.156;2023-06-10T05:58:22;6.53;;;3.70;;
789;SDS011;378;48.844;9.156;2023-06-10T06:00:49;5.13;;;4.20;;
789;SDS011;378;48.844;9.156;2023-06-10T06:03:17;5.20;;;3.92;;
789;SDS011;378;48.844;9.156;2023-06-10T06:05:44;5.13;;;3.92;;
789;SDS011;378;48.844;9.156;2023-06-10T06:08:11;5.38;;;4.30;;
789;SDS011;378;48.844;9.156;2023-06-10T06:10:42;4.63;;;3.75;;
789;SDS011;378;48.844;9.156;2023-06-10T06:13:10;7.07;;;3.45;;
789;SDS011;378;48.844;9.156;2023-06-10T06:15:37;5.82;;;4.13;;
789;SDS011;378;48.844;9.156;2023-06-10T06:18:05;5.35;;;3.92;;
789;SDS011;378;48.844;9.156;2023-06-10T06:20:32;5.95;;;4.03;;
789;SDS011;378;48.844;9.156;2023-06-10T06:22:58;6.35;;;4.32;;
789;SDS011;378;48.844;9.156;2023-06-10T06:25:25;5.43;;;4.05;;
789;SDS011;378;48.844;9.156;2023-06-10T06:27:55;5.88;;;4.07;;
789;SDS011;378;48.844;9.156;2023-06-10T06:30:23;9.40;;;4.72;;
789;SDS011;378;48.844;9.156;2023-06-10T06:32:50;5.07;;;4.25;;
789;SDS011;378;48.844;9.156;2023-06-10T06:35:17;5.10;;;4.40;;
789;SDS011;378;48.844;9.156;2023-06-10T06:37:44;4.85;;;3.80;;
789;SDS011;378;48.844;9.156;2023-06-10T06:40:11;9.65;;;4.00;;
789;SDS011;378;48.844;9.156;2023-06-10T06:42:39;5.93;;;3.53;;
789;SDS011;378;48.844;9.156;2023-06-10T06:45:06;6.03;;;4.20;;
789;SDS011;378;48.844;9.156;2023-06-10T06:47:34;5.03;;;4.35;;
789;SDS011;378;48.844;9.156;2023-06-10T06:50:01;6.80;;;3.90;;
789;SDS011;378;48.844;9.156;2023-06-10T06:52:28;6.45;;;3.63;;
789;SDS011;378;48.844;9.156;2023-06-10T06:54:55;5.90;;;3.83;;
789;SDS011;378;48.844;9.156;2023-06-10T06:57:22;4.55;;;3.80;;
789;SDS011;378;48.844;9.156;2023-06-10T06:59:49;6.40;;;3.83;;
789;SDS011;378;48.844;9.156;2023-06-10T07:02:16;5.88;;;4.38;;
789;SDS011;378;48.844;9.156;2023-06-10T07:04:45;8.95;;;3.90;;
789;SDS011;378;48.844;9.156;2023-06-10T07:07:13;4.40;;;3.90;;
789;SDS011;378;48.844;9.156;2023-06-10T07:09:40;5.05;;;3.42;;
789;SDS011;378;48.844;9.156;2023-06-10T07:12:08;3.80;;;3.40;;
789;SDS011;378;48.844;9.156;2023-06-10T07:14:35;5.22;;;4.30;;
789;SDS011;378;48.844;9.156;2023-06-10T07:17:02;4.60;;;3.85;;
789;SDS011;378;48.844;9.156;2023-06-10T07:19:29;4.47;;;3.80;;
789;SDS011;378;48.844;9.156;2023-06-10T07:21:57;6.65;;;4.10;;
789;SDS011;378;48.844;9.156;2023-06-10T07:24:24;4.93;;;3.60;;
789;SDS011;378;48.844;9.156;2023-06-10T07:26:51;5.30;;;3.55;;
789;SDS011;378;48.844;9.156;2023-06-10T07:29:18;5.72;;;4.03;;
789;SDS011;378;48.844;9.156;2023-06-10T07:31:45;6.57;;;3.60;;
789;SDS011;378;48.844;9.156;2023-06-10T07:34:11;5.00;;;3.72;;
789;SDS011;378;48.844;9.156;2023-06-10T07:36:38;6.15;;;3.90;;
789;SDS011;378;48.844;9.156;2023-06-10T07:39:06;5.07;;;3.47;;
789;SDS011;378;48.844;9.156;2023-06-10T07:41:33;4.05;;;3.60;;
789;SDS011;378;48.844;9.156;2023-06-10T07:44:00;6.70;;;3.70;;
789;SDS011;378;48.844;9.156;2023-06-10T07:46:27;4.25;;;3.15;;
789;SDS011;378;48.844;9.156;2023-06-10T07:48:54;4.32;;;3.60;;
789;SDS011;378;48.844;9.156;2023-06-10T07:51:21;5.97;;;3.58;;
789;SDS011;378;48.844;9.156;2023-06-10T07:53:48;5.20;;;3.33;;
789;SDS011;378;48.844;9.156;2023-06-10T07:56:16;3.75;;;3.33;;
789;SDS011;378;48.844;9.156;2023-06-10T07:58:43;5.97;;;3.85;;
789;SDS011;378;48.844;9.156;2023-06-10T08:01:10;3.90;;;3.40;;
789;SDS011;378;48.844;9.156;2023-06-10T08:03:37;5.40;;;3.90;;
789;SDS011;378;48.844;9.156;2023-06-10T08:06:04;4.35;;;3.60;;
789;SDS011;378;48.844;9.156;2023-06-10T08:08:31;4.03;;;3.45;;
789;SDS011;378;48.844;9.156;2023-06-10T08:10:59;6.72;;;4.07;;
789;SDS011;378;48.844;9.156;2023-06-10T08:13:28;7.13;;;4.30;;
789;SDS011;378;48.844;9.156;2023-06-10T08:15:54;8.18;;;3.90;;
789;SDS011;378;48.844;9.156;2023-06-10T08:18:21;5.18;;;4.32;;
789;SDS011;378;48.844;9.156;2023-06-10T08:20:48;4.95;;;3.92;;
789;SDS011;378;48.844;9.156;2023-06-10T08:23:15;4.20;;;3.80;;
789;SDS011;378;48.844;9.156;2023-06-10T08:25:42;5.50;;;3.80;;
789;SDS011;378;48.844;9.156;2023-06-10T08:28:09;4.70;;;3.90;;
789;SDS011;378;48.844;9.156;2023-06-10T08:30:37;5.25;;;3.97;;
789;SDS011;378;48.844;9.156;2023-06-10T08:33:04;5.40;;;4.20;;
789;SDS011;378;48.844;9.156;2023-06-10T08:35:30;5.35;;;3.85;;
789;SDS011;378;48.844;9.156;2023-06-10T08:37:57;5.55;;;3.97;;
789;SDS011;378;48.844;9.156;2023-06-10T08:40:24;4.93;;;3.47;;
789;SDS011;378;48.844;9.156;2023-06-10T08:42:53;5.00;;;3.53;;
789;SDS011;378;48.844;9.156;2023-06-10T08:45:28;5.75;;;3.83;;
789;SDS011;378;48.844;9.156;2023-06-10T08:47:58;4.60;;;3.67;;
789;SDS011;378;48.844;9.156;2023-06-10T08:50:26;5.00;;;4.00;;
789;SDS011;378;48.844;9.156;2023-06-10T08:52:57;4.72;;;3.85;;
789;SDS011;378;48.844;9.156;2023-06-10T08:55:26;6.78;;;4.00;;
789;SDS011;378;48.844;9.156;2023-06-10T08:57:56;5.13;;;4.07;;
789;SDS011;378;48.844;9.156;2023-06-10T09:00:25;5.18;;;3.53;;
789;SDS011;378;48.844;9.156;2023-06-10T09:02:53;6.32;;;4.20;;
789;SDS011;378;48.844;9.156;2023-06-10T09:05:22;7.22;;;3.90;;
789;SDS011;378;48.844;9.156;2023-06-10T09:07:50;4.82;;;3.42;;
789;SDS011;378;48.844;9.156;2023-06-10T09:10:19;4.10;;;3.60;;
789;SDS011;378;48.844;9.156;2023-06-10T09:12:46;4.03;;;3.33;;
789;SDS011;378;48.844;9.156;2023-06-10T09:15:13;5.30;;;3.60;;
789;SDS011;378;48.844;9.156;2023-06-10T09:17:42;4.82;;;3.42;;
789;SDS011;378;48.844;9.156;2023-06-10T09:20:10;3.70;;;3.30;;
789;SDS011;378;48.844;9.156;2023-06-10T09:22:38;6.10;;;3.58;;
789;SDS011;378;48.844;9.156;2023-06-10T09:25:08;7.00;;;3.50;;
789;SDS011;378;48.844;9.156;2023-06-10T09:27:43;5.90;;;3.50;;
789;SDS011;378;48.844;9.156;2023-06-10T09:30:23;5.53;;;3.60;;
789;SDS011;378;48.844;9.156;2023-06-10T09:32:52;4.28;;;3.20;;
789;SDS011;378;48.844;9.156;2023-06-10T09:35:20;5.38;;;3.60;;
789;SDS011;378;48.844;9.156;2023-06-10T09:37:50;5.40;;;3.55;;
789;SDS011;378;48.844;9.156;2023-06-10T09:40:18;5.15;;;3.30;;
789;SDS011;378;48.844;9.156;2023-06-10T09:42:46;6.38;;;3.53;;
789;SDS011;378;48.844;9.156;2023-06-10T09:45:18;4.18;;;2.95;;
789;SDS011;378;48.844;9.156;2023-06-10T09:47:45;5.15;;;3.55;;
789;SDS011;378;48.844;9.156;2023-06-10T09:50:12;4.47;;;3.58;;
789;SDS011;378;48.844;9.156;2023-06-10T09:52:39;3.72;;;3.22;;
789;SDS011;378;48.844;9.156;2023-06-10T09:55:08;4.30;;;3.40;;
789;SDS011;378;48.844;9.156;2023-06-10T09:57:36;5.90;;;3.65;;
789;SDS011;378;48.844;9.156;2023-06-10T10:00:04;4.88;;;3.35;;
789;SDS011;378;48.844;9.156;2023-06-10T10:02:33;4.32;;;3.20;;
789;SDS011;378;48.844;9.156;2023-06-10T10:05:10;5.75;;;3.40;;
789;SDS011;378;48.844;9.156;2023-06-10T10:07:39;3.42;;;3.13;;
789;SDS011;378;48.844;9.156;2023-06-10T10:10:08;6.05;;;3.47;;
789;SDS011;378;48.844;9.156;2023-06-10T10:12:36;5.20;;;3.38;;
789;SDS011;378;48.844;9.156;2023-06-10T10:15:05;5.15;;;3.50;;
789;SDS011;378;48.844;9.156;2023-06-10T10:17:33;4.63;;;2.95;;
789;SDS011;378;48.844;9.156;2023-06-10T10:20:02;4.72;;;3.20;;
789;SDS011;378;48.844;9.156;2023-06-10T10:22:31;6.80;;;3.40;;
789;SDS011;378;48.844;9.156;2023-06-10T10:25:05;5.10;;;3.20;;
789;SDS011;378;48.844;9.156;2023-06-10T10:27:40;4.20;;;3.10;;
789;SDS011;378;48.844;9.156;2023-06-10T10:30:10;5.45;;;3.63;;
789;SDS011;378;48.844;9.156;2023-06-10T10:32:40;6.35;;;3.00;;
789;SDS011;378;48.844;9.156;2023-06-10T10:35:16;4.47;;;3.50;;
789;SDS011;378;48.844;9.156;2023-06-10T10:37:43;4.05;;;3.40;;
789;SDS011;378;48.844;9.156;2023-06-10T10:40:12;3.83;;;3.13;;
789;SDS011;378;48.844;9.156;2023-06-10T10:42:39;6.65;;;3.42;;
789;SDS011;378;48.844;9.156;2023-06-10T10:45:07;4.25;;;3.63;;
789;SDS011;378;48.844;9.156;2023-06-10T10:47:36;5.53;;;3.75;;
789;SDS011;378;48.844;9.156;2023-06-10T10:50:12;4.20;;;3.47;;
789;SDS011;378;48.844;9.156;2023-06-10T10:52:52;3.70;;;3.20;;
789;SDS011;378;48.844;9.156;2023-06-10T10:55:22;3.90;;;3.47;;
789;SDS011;378;48.844;9.156;2023-06-10T10:57:56;4.38;;;3.33;;
789;SDS011;378;48.844;9.156;2023-06-10T11:00:24;3.67;;;3.28;;
789;SDS011;378;48.844;9.156;2023-06-10T11:02:57;4.35;;;3.30;;
789;SDS011;378;48.844;9.156;2023-06-10T11:05:35;3.80;;;3.40;;
789;SDS011;378;48.844;9.156;2023-06-10T11:08:03;6.60;;;3.67;;
789;SDS011;378;48.844;9.156;2023-06-10T11:10:32;7.47;;;3.20;;
789;SDS011;378;48.844;9.156;2023-06-10T11:13:00;3.58;;;3.10;;
789;SDS011;378;48.844;9.156;2023-06-10T11:15:33;4.35;;;3.38;;
789;SDS011;378;48.844;9.156;2023-06-10T11:18:10;6.00;;;3.17;;
789;SDS011;378;48.844;9.156;2023-06-10T11:20:52;4.30;;;3.20;;
789;SDS011;378;48.844;9.156;2023-06-10T11:23:33;4.15;;;2.85;;
789;SDS011;378;48.844;9.156;2023-06-10T11:26:17;3.25;;;2.95;;
789;SDS011;378;48.844;9.156;2023-06-10T11:31:38;2.80;;;2.60;;
789;SDS011;378;48.844;9.156;2023-06-10T11:34:10;3.70;;;2.90;;
789;SDS011;378;48.844;9.156;2023-06-10T11:36:37;5.97;;;2.90;;
789;SDS011;378;48.844;9.156;2023-06-10T11:39:07;5.03;;;3.08;;
789;SDS011;378;48.844;9.156;2023-06-10T11:41:36;3.22;;;2.92;;
789;SDS011;378;48.844;9.156;2023-06-10T11:44:07;3.75;;;3.00;;
789;SDS011;378;48.844;9.156;2023-06-10T11:46:35;4.30;;;2.95;;
789;SDS011;378;48.844;9.156;2023-06-10T11:49:02;3.50;;;2.88;;
789;SDS011;378;48.844;9.156;2023-06-10T11:51:32;5.05;;;3.03;;
789;SDS011;378;48.844;9.156;2023-06-10T11:54:00;6.05;;;3.50;;
789;SDS011;378;48.844;9.156;2023-06-10T11:56:27;3.65;;;2.85;;
789;SDS011;378;48.844;9.156;2023-06-10T11:58:57;3.80;;;2.90;;
789;SDS011;378;48.844;9.156;2023-06-10T12:01:29;4.10;;;2.95;;
789;SDS011;378;48.844;9.156;2023-06-10T12:03:57;5.85;;;3.03;;
789;SDS011;378;48.844;9.156;2023-06-10T12:06:24;5.57;;;2.85;;
789;SDS011;378;48.844;9.156;2023-06-10T12:08:51;3.83;;;2.85;;
789;SDS011;378;48.844;9.156;2023-06-10T12:11:19;3.55;;;2.80;;
789;SDS011;378;48.844;9.156;2023-06-10T12:13:46;7.03;;;2.83;;
789;SDS011;378;48.844;9.156;2023-06-10T12:16:16;4.15;;;3.20;;
789;SDS011;378;48.844;9.156;2023-06-10T12:18:44;3.35;;;3.03;;
789;SDS011;378;48.844;9.156;2023-06-10T12:21:17;4.15;;;2.83;;
789;SDS011;378;48.844;9.156;2023-06-10T12:24:04;6.60;;;2.95;;
789;SDS011;378;48.844;9.156;2023-06-10T12:26:37;5.22;;;2.80;;
789;SDS011;378;48.844;9.156;2023-06-10T12:32:00;4.63;;;2.70;;
789;SDS011;378;48.844;9.156;2023-06-10T12:34:33;7.22;;;2.45;;
789;SDS011;378;48.844;9.156;2023-06-10T12:37:01;5.63;;;2.70;;
789;SDS011;378;48.844;9.156;2023-06-10T12:39:30;5.00;;;2.53;;
789;SDS011;378;48.844;9.156;2023-06-10T12:41:57;3.33;;;2.65;;
789;SDS011;378;48.844;9.156;2023-06-10T12:44:28;3.10;;;2.80;;
789;SDS011;378;48.844;9.156;2023-06-10T12:46:55;4.63;;;2.53;;
789;SDS011;378;48.844;9.156;2023-06-10T12:49:23;3.92;;;2.60;;
789;SDS011;378;48.844;9.156;2023-06-10T12:51:51;4.60;;;2.80;;
789;SDS011;378;48.844;9.156;2023-06-10T12:54:18;6.50;;;2.90;;
789;SDS011;378;48.844;9.156;2023-06-10T12:56:45;3.22;;;2.47;;
789;SDS011;378;48.844;9.156;2023-06-10T12:59:12;3.38;;;2.38;;
789;SDS011;378;48.844;9.156;2023-06-10T13:01:39;9.48;;;2.58;;
789;SDS011;378;48.844;9.156;2023-06-10T13:04:06;2.97;;;2.40;;
789;SDS011;378;48.844;9.156;2023-06-10T13:06:34;3.78;;;2.60;;
789;SDS011;378;48.844;9.156;2023-06-10T13:09:03;4.18;;;2.88;;
789;SDS011;378;48.844;9.156;2023-06-10T13:11:32;3.42;;;2.50;;
789;SDS011;378;48.844;9.156;2023-06-10T13:13:58;3.83;;;2.85;;
789;SDS011;378;48.844;9.156;2023-06-10T13:16:25;5.15;;;2.80;;
789;SDS011;378;48.844;9.156;2023-06-10T13:18:53;3.90;;;2.83;;
789;SDS011;378;48.844;9.156;2023-06-10T13:21:20;6.05;;;2.63;;
789;SDS011;378;48.844;9.156;2023-06-10T13:23:48;3.80;;;2.38;;
789;SDS011;378;48.844;9.156;2023-06-10T13:26:16;3.05;;;2.53;;
789;SDS011;378;48.844;9.156;2023-06-10T13:28:43;3.30;;;2.45;;
789;SDS011;378;48.844;9.156;2023-06-10T13:31:10;4.50;;;2.33;;
789;SDS011;378;48.844;9.156;2023-06-10T13:33:36;2.65;;;2.25;;
789;SDS011;378;48.844;9.156;2023-06-10T13:36:04;2.95;;;2.10;;
789;SDS011;378;48.844;9.156;2023-06-10T13:38:31;2.83;;;2.22;;
789;SDS011;378;48.844;9.156;2023-06-10T13:40:59;3.80;;;2.15;;
789;SDS011;378;48.844;9.156;2023-06-10T13:43:26;3.42;;;2.60;;
789;SDS011;378;48.844;9.156;2023-06-10T13:45:54;2.88;;;2.53;;
789;SDS011;378;48.844;9.156;2023-06-10T13:48:20;3.22;;;2.50;;
789;SDS011;378;48.844;9.156;2023-06-10T13:50:47;5.68;;;2.47;;
789;SDS011;378;48.844;9.156;2023-06-10T13:53:14;2.42;;;2.22;;
789;SDS011;378;48.844;9.156;2023-06-10T13:55:41;3.75;;;2.92;;
789;SDS011;378;48.844;9.156;2023-06-10T13:58:09;4.38;;;2.67;;
789;SDS011;378;48.844;9.156;2023-06-10T14:00:36;4.07;;;2.50;;
789;SDS011;378;48.844;9.156;2023-06-10T14:03:03;3.83;;;2.80;;
789;SDS011;378;48.844;9.156;2023-06-10T14:05:29;5.82;;;2.95;;
789;SDS011;378;48.844;9.156;2023-06-10T14:07:57;3.38;;;2.28;;
789;SDS011;378;48.844;9.156;2023-06-10T14:10:25;3.25;;;2.47;;
789;SDS011;378;48.844;9.156;2023-06-10T14:12:52;2.97;;;2.50;;
789;SDS011;378;48.844;9.156;2023-06-10T14:15:20;3.08;;;2.63;;
789;SDS011;378;48.844;9.156;2023-06-10T14:17:47;3.03;;;2.30;;
789;SDS011;378;48.844;9.156;2023-06-10T14:20:13;4.70;;;2.80;;
789;SDS011;378;48.844;9.156;2023-06-10T14:22:40;3.67;;;2.58;;
789;SDS011;378;48.844;9.156;2023-06-10T14:25:07;4.55;;;2.80;;
789;SDS011;378;48.844;9.156;2023-06-10T14:27:34;3.10;;;2.60;;
789;SDS011;378;48.844;9.156;2023-06-10T14:30:01;4.38;;;2.50;;
789;SDS011;378;48.844;9.156;2023-06-10T14:32:31;6.55;;;3.10;;
789;SDS011;378;48.844;9.156;2023-06-10T14:34:57;4.45;;;2.80;;
789;SDS011;378;48.844;9.156;2023-06-10T14:37:25;2.90;;;2.67;;
789;SDS011;378;48.844;9.156;2023-06-10T14:39:51;3.20;;;2.72;;
789;SDS011;378;48.844;9.156;2023-06-10T14:42:18;4.35;;;2.78;;
789;SDS011;378;48.844;9.156;2023-06-10T14:44:45;2.85;;;2.55;;
789;SDS011;378;48.844;9.156;2023-06-10T14:47:12;3.30;;;3.00;;
789;SDS011;378;48.844;9.156;2023-06-10T14:49:40;5.20;;;2.97;;
789;SDS011;378;48.844;9.156;2023-06-10T14:52:08;4.28;;;2.85;;
789;SDS011;378;48.844;9.156;2023-06-10T14:54:36;3.90;;;2.92;;
789;SDS011;378;48.844;9.156;2023-06-10T14:57:02;3.30;;;2.70;;
789;SDS011;378;48.844;9.156;2023-06-10T14:59:30;3.92;;;3.08;;
789;SDS011;378;48.844;9.156;2023-06-10T15:01:57;5.25;;;2.85;;
789;SDS011;378;48.844;9.156;2023-06-10T15:04:25;4.45;;;3.40;;
789;SDS011;378;48.844;9.156;2023-06-10T15:06:54;3.90;;;3.05;;
789;SDS011;378;48.844;9.156;2023-06-10T15:09:21;7.68;;;2.90;;
789;SDS011;378;48.844;9.156;2023-06-10T15:11:48;8.77;;;3.20;;
789;SDS011;378;48.844;9.156;2023-06-10T15:14:15;4.90;;;3.08;;
789;SDS011;378;48.844;9.156;2023-06-10T15:16:41;3.88;;;3.25;;
789;SDS011;378;48.844;9.156;2023-06-10T15:19:08;5.57;;;3.33;;
789;SDS011;378;48.844;9.156;2023-06-10T15:21:35;5.65;;;3.15;;
789;SDS011;378;48.844;9.156;2023-06-10T15:24:04;7.60;;;3.75;;
789;SDS011;378;48.844;9.156;2023-06-10T15:26:31;4.88;;;3.28;;
789;SDS011;378;48.844;9.156;2023-06-10T15:28:58;4.05;;;3.10;;
789;SDS011;378;48.844;9.156;2023-06-10T15:31:28;4.05;;;3.30;;
789;SDS011;378;48.844;9.156;2023-06-10T15:33:56;2.90;;;2.70;;
789;SDS011;378;48.844;9.156;2023-06-10T15:36:23;4.50;;;2.88;;
789;SDS011;378;48.844;9.156;2023-06-10T15:38:50;4.57;;;3.20;;
789;SDS011;378;48.844;9.156;2023-06-10T15:41:19;5.57;;;3.30;;
789;SDS011;378;48.844;9.156;2023-06-10T15:43:46;3.45;;;2.85;;
789;SDS011;378;48.844;9.156;2023-06-10T15:46:13;3.42;;;3.13;;
789;SDS011;378;48.844;9.156;2023-06-10T15:48:40;3.13;;;2.83;;
789;SDS011;378;48.844;9.156;2023-06-10T15:51:07;8.27;;;3.70;;
789;SDS011;378;48.844;9.156;2023-06-10T15:53:33;3.65;;;2.60;;
789;SDS011;378;48.844;9.156;2023-06-10T15:56:01;3.67;;;2.75;;